Oriibu — JD2579 — position and weather

sailwx.info

Track history (hours):
 
Tides and Currents Weather Stations Pressure Air Temp Water Temp Dewpoint Dewpoint Depression Visibility Wind Speed Wind Dir Waves Ship Positions

Oriibu

Last reported at 2015-Apr-16 23:32 UTC. Time now 2015-Apr-19 22:51 UTC.
Position N 34°10' E 134°58'.

Length 75 m; draft 4.2 m.

MMSI: 431000426.

Date/timePositionNaut miles runAvg speedWind from/ knotsBaromVisibWave heightAir tempDewpointWater temp
2015-Apr-16 23:32N 34°10' E 134°58'1210.3
2015-Apr-16 22:24N 34°21' E 135°00'1010.7
2015-Apr-16 21:28N 34°28' E 135°09'1011.2
2015-Apr-16 20:33N 34°37' E 135°16'5 4.8
2015-Apr-16 19:29N 34°42' E 135°15'0 0.0
2015-Apr-16 18:29N 34°42' E 135°15'0 0.0
2015-Apr-16 17:29N 34°42' E 135°15'0 0.0
2015-Apr-16 16:29N 34°42' E 135°15'0 0.0
2015-Apr-16 15:29N 34°42' E 135°15'0 0.0
2015-Apr-16 14:29N 34°42' E 135°15'0 0.0
2015-Apr-16 13:29N 34°42' E 135°15'0 0.0
2015-Apr-16 12:23N 34°42' E 135°15'0 0.0
2015-Apr-16 11:29N 34°42' E 135°15'0 0.0
2015-Apr-16 10:29N 34°42' E 135°15'0 0.0
2015-Apr-16 09:29N 34°42' E 135°15'0 0.0
2015-Apr-16 08:29N 34°42' E 135°15'0 0.0
2015-Apr-16 07:29N 34°42' E 135°15'0 0.0
2015-Apr-16 06:29N 34°42' E 135°15'0 0.0
2015-Apr-16 05:29N 34°42' E 135°15'0 0.0
2015-Apr-16 04:29N 34°42' E 135°15'0 0.0
2015-Apr-16 03:29N 34°42' E 135°15'0 0.0
2015-Apr-16 02:23N 34°42' E 135°15'0 0.0
2015-Apr-16 01:29N 34°42' E 135°15'0 0.0
2015-Apr-16 00:17N 34°42' E 135°15'0 0.0
2015-Apr-15 23:33N 34°42' E 135°15'1 0.6
2015-Apr-15 22:33N 34°42' E 135°15'0 0.3
2015-Apr-15 21:27N 34°41' E 135°15'0 0.0
2015-Apr-15 20:33N 34°41' E 135°15'0 0.0
2015-Apr-15 19:33N 34°41' E 135°15'0 0.1
2015-Apr-15 18:33N 34°41' E 135°15'0 0.0
2015-Apr-15 17:33N 34°41' E 135°15'0 0.0
2015-Apr-15 16:33N 34°41' E 135°15'0 0.0
2015-Apr-15 15:33N 34°41' E 135°15'0 0.1
2015-Apr-15 14:33N 34°41' E 135°15'0 0.1
2015-Apr-15 13:33N 34°41' E 135°15'0 0.0
2015-Apr-15 12:33N 34°41' E 135°15'0 0.0
2015-Apr-15 11:33N 34°41' E 135°15'0 0.0
2015-Apr-15 10:33N 34°41' E 135°15'0 0.0
2015-Apr-15 09:33N 34°41' E 135°15'0 0.0
2015-Apr-15 08:33N 34°41' E 135°15'0 0.0
2015-Apr-15 07:34N 34°41' E 135°15'0 0.0
2015-Apr-15 06:34N 34°41' E 135°15'6 5.7
2015-Apr-15 05:33N 34°36' E 135°12'1413.5
2015-Apr-15 04:32N 34°36' E 134°55'  
2015-Apr-09 21:06N 34°41' E 134°49'  
2015-Apr-07 08:18N 34°36' E 134°56'7 8.7
2015-Apr-07 07:32N 34°36' E 135°04'1212.1
2015-Apr-07 06:33N 34°37' E 135°18'5 4.9
2015-Apr-07 05:29N 34°37' E 135°25'0 0.0
2015-Apr-07 04:23N 34°37' E 135°25'0 0.0
2015-Apr-07 03:29N 34°37' E 135°25'0 0.0
2015-Apr-07 02:11N 34°37' E 135°25'0 0.0
2015-Apr-07 01:29N 34°37' E 135°25'0 0.0
2015-Apr-07 00:23N 34°37' E 135°25'0 0.0
2015-Apr-06 23:32N 34°37' E 135°25'  
Track history (hours):
 
Tides and Currents Weather Stations Pressure Air Temp Water Temp Dewpoint Dewpoint Depression Visibility Wind Speed Wind Dir Waves Ship Positions

Oriibu

Last reported at 2015-Apr-16 23:32 UTC. Time now 2015-Apr-19 22:51 UTC.
Position N 34°10' E 134°58'.

Length 75 m; draft 4.2 m.

MMSI: 431000426.

Date/timePositionNaut miles runAvg speedWind from/ knotsBaromVisibWave heightAir tempDewpointWater temp
2015-Apr-16 23:32N 34°10' E 134°58'1210.3
2015-Apr-16 22:24N 34°21' E 135°00'1010.7
2015-Apr-16 21:28N 34°28' E 135°09'1011.2
2015-Apr-16 20:33N 34°37' E 135°16'5 4.8
2015-Apr-16 19:29N 34°42' E 135°15'0 0.0
2015-Apr-16 18:29N 34°42' E 135°15'0 0.0
2015-Apr-16 17:29N 34°42' E 135°15'0 0.0
2015-Apr-16 16:29N 34°42' E 135°15'0 0.0
2015-Apr-16 15:29N 34°42' E 135°15'0 0.0
2015-Apr-16 14:29N 34°42' E 135°15'0 0.0
2015-Apr-16 13:29N 34°42' E 135°15'0 0.0
2015-Apr-16 12:23N 34°42' E 135°15'0 0.0
2015-Apr-16 11:29N 34°42' E 135°15'0 0.0
2015-Apr-16 10:29N 34°42' E 135°15'0 0.0
2015-Apr-16 09:29N 34°42' E 135°15'0 0.0
2015-Apr-16 08:29N 34°42' E 135°15'0 0.0
2015-Apr-16 07:29N 34°42' E 135°15'0 0.0
2015-Apr-16 06:29N 34°42' E 135°15'0 0.0
2015-Apr-16 05:29N 34°42' E 135°15'0 0.0
2015-Apr-16 04:29N 34°42' E 135°15'0 0.0
2015-Apr-16 03:29N 34°42' E 135°15'0 0.0
2015-Apr-16 02:23N 34°42' E 135°15'0 0.0
2015-Apr-16 01:29N 34°42' E 135°15'0 0.0
2015-Apr-16 00:17N 34°42' E 135°15'0 0.0
2015-Apr-15 23:33N 34°42' E 135°15'1 0.6
2015-Apr-15 22:33N 34°42' E 135°15'0 0.3
2015-Apr-15 21:27N 34°41' E 135°15'0 0.0
2015-Apr-15 20:33N 34°41' E 135°15'0 0.0
2015-Apr-15 19:33N 34°41' E 135°15'0 0.1
2015-Apr-15 18:33N 34°41' E 135°15'0 0.0
2015-Apr-15 17:33N 34°41' E 135°15'0 0.0
2015-Apr-15 16:33N 34°41' E 135°15'0 0.0
2015-Apr-15 15:33N 34°41' E 135°15'0 0.1
2015-Apr-15 14:33N 34°41' E 135°15'0 0.1
2015-Apr-15 13:33N 34°41' E 135°15'0 0.0
2015-Apr-15 12:33N 34°41' E 135°15'0 0.0
2015-Apr-15 11:33N 34°41' E 135°15'0 0.0
2015-Apr-15 10:33N 34°41' E 135°15'0 0.0
2015-Apr-15 09:33N 34°41' E 135°15'0 0.0
2015-Apr-15 08:33N 34°41' E 135°15'0 0.0
2015-Apr-15 07:34N 34°41' E 135°15'0 0.0
2015-Apr-15 06:34N 34°41' E 135°15'6 5.7
2015-Apr-15 05:33N 34°36' E 135°12'1413.5
2015-Apr-15 04:32N 34°36' E 134°55'  
2015-Apr-09 21:06N 34°41' E 134°49'  
2015-Apr-07 08:18N 34°36' E 134°56'7 8.7
2015-Apr-07 07:32N 34°36' E 135°04'1212.1
2015-Apr-07 06:33N 34°37' E 135°18'5 4.9
2015-Apr-07 05:29N 34°37' E 135°25'0 0.0
2015-Apr-07 04:23N 34°37' E 135°25'0 0.0
2015-Apr-07 03:29N 34°37' E 135°25'0 0.0
2015-Apr-07 02:11N 34°37' E 135°25'0 0.0
2015-Apr-07 01:29N 34°37' E 135°25'0 0.0
2015-Apr-07 00:23N 34°37' E 135°25'0 0.0
2015-Apr-06 23:32N 34°37' E 135°25'  

Dump ship's entire track history